sensor_id;sensor_type;location;lat;lon;timestamp;P1;durP1;ratioP1;P2;durP2;ratioP2
9918;SDS011;4998;51.024;13.828;2023-06-26T00:02:00;4.67;;;4.27;;
9918;SDS011;4998;51.024;13.828;2023-06-26T00:04:28;4.87;;;4.47;;
9918;SDS011;4998;51.024;13.828;2023-06-26T00:06:55;5.90;;;4.17;;
9918;SDS011;4998;51.024;13.828;2023-06-26T00:09:23;4.90;;;4.50;;
9918;SDS011;4998;51.024;13.828;2023-06-26T00:11:50;5.77;;;5.00;;
9918;SDS011;4998;51.024;13.828;2023-06-26T00:14:17;5.03;;;4.63;;
9918;SDS011;4998;51.024;13.828;2023-06-26T00:16:45;5.27;;;4.77;;
9918;SDS011;4998;51.024;13.828;2023-06-26T00:19:14;4.83;;;4.30;;
9918;SDS011;4998;51.024;13.828;2023-06-26T00:21:41;4.97;;;4.47;;
9918;SDS011;4998;51.024;13.828;2023-06-26T00:24:12;5.67;;;4.50;;
9918;SDS011;4998;51.024;13.828;2023-06-26T00:26:41;4.90;;;4.50;;
9918;SDS011;4998;51.024;13.828;2023-06-26T00:29:08;4.77;;;4.37;;
9918;SDS011;4998;51.024;13.828;2023-06-26T00:31:35;5.30;;;4.83;;
9918;SDS011;4998;51.024;13.828;2023-06-26T00:34:03;5.50;;;5.00;;
9918;SDS011;4998;51.024;13.828;2023-06-26T00:36:30;4.90;;;4.50;;
9918;SDS011;4998;51.024;13.828;2023-06-26T00:38:58;5.63;;;5.13;;
9918;SDS011;4998;51.024;13.828;2023-06-26T00:41:25;5.20;;;4.53;;
9918;SDS011;4998;51.024;13.828;2023-06-26T00:43:53;4.47;;;4.07;;
9918;SDS011;4998;51.024;13.828;2023-06-26T00:46:20;4.80;;;4.40;;
9918;SDS011;4998;51.024;13.828;2023-06-26T00:48:49;4.67;;;4.27;;
9918;SDS011;4998;51.024;13.828;2023-06-26T00:51:16;5.33;;;4.83;;
9918;SDS011;4998;51.024;13.828;2023-06-26T00:53:43;4.80;;;4.40;;
9918;SDS011;4998;51.024;13.828;2023-06-26T00:56:10;6.50;;;4.93;;
9918;SDS011;4998;51.024;13.828;2023-06-26T00:58:38;5.73;;;5.00;;
9918;SDS011;4998;51.024;13.828;2023-06-26T01:01:06;5.37;;;4.83;;
9918;SDS011;4998;51.024;13.828;2023-06-26T01:03:39;12.27;;;6.93;;
9918;SDS011;4998;51.024;13.828;2023-06-26T01:06:06;5.27;;;4.87;;
9918;SDS011;4998;51.024;13.828;2023-06-26T01:08:36;4.90;;;4.50;;
9918;SDS011;4998;51.024;13.828;2023-06-26T01:11:03;4.90;;;4.50;;
9918;SDS011;4998;51.024;13.828;2023-06-26T01:13:31;5.47;;;4.67;;
9918;SDS011;4998;51.024;13.828;2023-06-26T01:15:58;5.40;;;4.90;;
9918;SDS011;4998;51.024;13.828;2023-06-26T01:18:27;5.67;;;4.70;;
9918;SDS011;4998;51.024;13.828;2023-06-26T01:20:55;5.57;;;5.00;;
9918;SDS011;4998;51.024;13.828;2023-06-26T01:23:29;5.30;;;4.80;;
9918;SDS011;4998;51.024;13.828;2023-06-26T01:26:12;5.37;;;4.87;;
9918;SDS011;4998;51.024;13.828;2023-06-26T01:28:44;6.43;;;5.77;;
9918;SDS011;4998;51.024;13.828;2023-06-26T01:31:12;5.70;;;5.20;;
9918;SDS011;4998;51.024;13.828;2023-06-26T01:33:40;5.47;;;4.97;;
9918;SDS011;4998;51.024;13.828;2023-06-26T01:36:07;5.63;;;5.13;;
9918;SDS011;4998;51.024;13.828;2023-06-26T01:38:34;6.00;;;4.90;;
9918;SDS011;4998;51.024;13.828;2023-06-26T01:41:02;6.47;;;4.70;;
9918;SDS011;4998;51.024;13.828;2023-06-26T01:43:43;5.43;;;4.93;;
9918;SDS011;4998;51.024;13.828;2023-06-26T01:46:21;6.40;;;5.00;;
9918;SDS011;4998;51.024;13.828;2023-06-26T01:48:52;6.30;;;4.77;;
9918;SDS011;4998;51.024;13.828;2023-06-26T01:51:27;6.57;;;5.10;;
9918;SDS011;4998;51.024;13.828;2023-06-26T01:53:58;5.27;;;4.70;;
9918;SDS011;4998;51.024;13.828;2023-06-26T01:56:28;5.23;;;4.80;;
9918;SDS011;4998;51.024;13.828;2023-06-26T01:58:57;5.30;;;4.80;;
9918;SDS011;4998;51.024;13.828;2023-06-26T02:01:26;6.53;;;5.17;;
9918;SDS011;4998;51.024;13.828;2023-06-26T02:03:53;5.40;;;4.90;;
9918;SDS011;4998;51.024;13.828;2023-06-26T02:06:20;5.70;;;5.17;;
9918;SDS011;4998;51.024;13.828;2023-06-26T02:08:47;5.20;;;4.80;;
9918;SDS011;4998;51.024;13.828;2023-06-26T02:11:14;5.37;;;4.87;;
9918;SDS011;4998;51.024;13.828;2023-06-26T02:13:41;5.30;;;4.77;;
9918;SDS011;4998;51.024;13.828;2023-06-26T02:16:09;6.00;;;5.33;;
9918;SDS011;4998;51.024;13.828;2023-06-26T02:18:36;5.47;;;4.93;;
9918;SDS011;4998;51.024;13.828;2023-06-26T02:21:03;5.73;;;5.23;;
9918;SDS011;4998;51.024;13.828;2023-06-26T02:23:30;6.10;;;5.37;;
9918;SDS011;4998;51.024;13.828;2023-06-26T02:25:57;6.70;;;5.07;;
9918;SDS011;4998;51.024;13.828;2023-06-26T02:28:25;5.63;;;4.80;;
9918;SDS011;4998;51.024;13.828;2023-06-26T02:30:52;5.47;;;4.97;;
9918;SDS011;4998;51.024;13.828;2023-06-26T02:33:20;7.43;;;5.03;;
9918;SDS011;4998;51.024;13.828;2023-06-26T02:35:47;5.80;;;5.20;;
9918;SDS011;4998;51.024;13.828;2023-06-26T02:38:15;5.03;;;4.60;;
9918;SDS011;4998;51.024;13.828;2023-06-26T02:40:42;5.73;;;5.23;;
9918;SDS011;4998;51.024;13.828;2023-06-26T02:43:09;5.50;;;5.07;;
9918;SDS011;4998;51.024;13.828;2023-06-26T02:45:36;5.37;;;4.87;;
9918;SDS011;4998;51.024;13.828;2023-06-26T02:48:03;6.43;;;5.47;;
9918;SDS011;4998;51.024;13.828;2023-06-26T02:50:32;6.83;;;5.10;;
9918;SDS011;4998;51.024;13.828;2023-06-26T02:52:59;5.30;;;4.83;;
9918;SDS011;4998;51.024;13.828;2023-06-26T02:55:26;6.30;;;5.30;;
9918;SDS011;4998;51.024;13.828;2023-06-26T02:57:53;5.53;;;5.03;;
9918;SDS011;4998;51.024;13.828;2023-06-26T03:00:20;7.43;;;5.00;;
9918;SDS011;4998;51.024;13.828;2023-06-26T03:02:47;5.60;;;5.10;;
9918;SDS011;4998;51.024;13.828;2023-06-26T03:05:15;7.37;;;5.33;;
9918;SDS011;4998;51.024;13.828;2023-06-26T03:07:43;5.93;;;5.33;;
9918;SDS011;4998;51.024;13.828;2023-06-26T03:10:10;5.33;;;4.83;;
9918;SDS011;4998;51.024;13.828;2023-06-26T03:12:37;5.63;;;5.00;;
9918;SDS011;4998;51.024;13.828;2023-06-26T03:15:04;5.47;;;4.90;;
9918;SDS011;4998;51.024;13.828;2023-06-26T03:17:32;5.80;;;5.30;;
9918;SDS011;4998;51.024;13.828;2023-06-26T03:19:59;5.43;;;5.03;;
9918;SDS011;4998;51.024;13.828;2023-06-26T03:22:26;5.10;;;4.60;;
9918;SDS011;4998;51.024;13.828;2023-06-26T03:24:54;8.83;;;5.40;;
9918;SDS011;4998;51.024;13.828;2023-06-26T03:27:21;5.70;;;5.20;;
9918;SDS011;4998;51.024;13.828;2023-06-26T03:29:48;5.43;;;4.90;;
9918;SDS011;4998;51.024;13.828;2023-06-26T03:32:15;5.57;;;5.10;;
9918;SDS011;4998;51.024;13.828;2023-06-26T03:34:42;6.20;;;5.37;;
9918;SDS011;4998;51.024;13.828;2023-06-26T03:37:09;6.20;;;4.70;;
9918;SDS011;4998;51.024;13.828;2023-06-26T03:39:36;5.30;;;4.80;;
9918;SDS011;4998;51.024;13.828;2023-06-26T03:42:05;5.90;;;5.30;;
9918;SDS011;4998;51.024;13.828;2023-06-26T03:44:33;5.97;;;5.13;;
9918;SDS011;4998;51.024;13.828;2023-06-26T03:47:00;5.47;;;4.90;;
9918;SDS011;4998;51.024;13.828;2023-06-26T03:49:27;7.60;;;5.60;;
9918;SDS011;4998;51.024;13.828;2023-06-26T03:51:54;5.87;;;4.80;;
9918;SDS011;4998;51.024;13.828;2023-06-26T03:54:21;7.17;;;5.27;;
9918;SDS011;4998;51.024;13.828;2023-06-26T03:56:48;5.53;;;5.03;;
9918;SDS011;4998;51.024;13.828;2023-06-26T03:59:16;9.10;;;4.90;;
9918;SDS011;4998;51.024;13.828;2023-06-26T04:01:44;5.23;;;4.73;;
9918;SDS011;4998;51.024;13.828;2023-06-26T04:04:11;5.60;;;5.10;;
9918;SDS011;4998;51.024;13.828;2023-06-26T04:06:38;5.87;;;5.27;;
9918;SDS011;4998;51.024;13.828;2023-06-26T04:09:05;6.53;;;5.40;;
9918;SDS011;4998;51.024;13.828;2023-06-26T04:11:32;7.20;;;5.30;;
9918;SDS011;4998;51.024;13.828;2023-06-26T04:13:59;6.53;;;5.20;;
9918;SDS011;4998;51.024;13.828;2023-06-26T04:16:27;6.00;;;5.40;;
9918;SDS011;4998;51.024;13.828;2023-06-26T04:18:54;5.90;;;4.87;;
9918;SDS011;4998;51.024;13.828;2023-06-26T04:21:22;5.40;;;4.80;;
9918;SDS011;4998;51.024;13.828;2023-06-26T04:23:50;6.73;;;5.47;;
9918;SDS011;4998;51.024;13.828;2023-06-26T04:26:17;6.53;;;5.07;;
9918;SDS011;4998;51.024;13.828;2023-06-26T04:28:44;6.60;;;4.70;;
9918;SDS011;4998;51.024;13.828;2023-06-26T04:31:11;5.73;;;5.13;;
9918;SDS011;4998;51.024;13.828;2023-06-26T04:33:39;5.07;;;4.63;;
9918;SDS011;4998;51.024;13.828;2023-06-26T04:36:06;4.97;;;4.57;;
9918;SDS011;4998;51.024;13.828;2023-06-26T04:38:33;5.37;;;4.50;;
9918;SDS011;4998;51.024;13.828;2023-06-26T04:41:01;5.40;;;4.90;;
9918;SDS011;4998;51.024;13.828;2023-06-26T04:43:28;5.57;;;4.60;;
9918;SDS011;4998;51.024;13.828;2023-06-26T04:45:55;8.13;;;4.67;;
9918;SDS011;4998;51.024;13.828;2023-06-26T04:48:22;5.20;;;4.63;;
9918;SDS011;4998;51.024;13.828;2023-06-26T04:50:50;5.40;;;5.00;;
9918;SDS011;4998;51.024;13.828;2023-06-26T04:53:19;5.77;;;4.63;;
9918;SDS011;4998;51.024;13.828;2023-06-26T04:55:47;4.83;;;4.43;;
9918;SDS011;4998;51.024;13.828;2023-06-26T04:58:13;5.20;;;4.70;;
9918;SDS011;4998;51.024;13.828;2023-06-26T05:00:41;5.47;;;4.63;;
9918;SDS011;4998;51.024;13.828;2023-06-26T05:03:08;4.93;;;4.50;;
9918;SDS011;4998;51.024;13.828;2023-06-26T05:05:35;7.50;;;4.73;;
9918;SDS011;4998;51.024;13.828;2023-06-26T05:08:14;4.60;;;4.20;;
9918;SDS011;4998;51.024;13.828;2023-06-26T05:10:42;6.20;;;4.93;;
9918;SDS011;4998;51.024;13.828;2023-06-26T05:13:10;4.50;;;4.20;;
9918;SDS011;4998;51.024;13.828;2023-06-26T05:15:40;4.70;;;4.30;;
9918;SDS011;4998;51.024;13.828;2023-06-26T05:18:07;5.23;;;4.77;;
9918;SDS011;4998;51.024;13.828;2023-06-26T05:20:34;5.00;;;4.60;;
9918;SDS011;4998;51.024;13.828;2023-06-26T05:23:02;5.20;;;4.67;;
9918;SDS011;4998;51.024;13.828;2023-06-26T05:25:31;5.00;;;4.60;;
9918;SDS011;4998;51.024;13.828;2023-06-26T05:27:59;4.73;;;4.33;;
9918;SDS011;4998;51.024;13.828;2023-06-26T05:30:27;4.30;;;3.73;;
9918;SDS011;4998;51.024;13.828;2023-06-26T05:32:56;4.50;;;4.10;;
9918;SDS011;4998;51.024;13.828;2023-06-26T05:35:25;9.87;;;8.87;;
9918;SDS011;4998;51.024;13.828;2023-06-26T05:37:55;13.20;;;11.90;;
9918;SDS011;4998;51.024;13.828;2023-06-26T05:40:23;9.13;;;8.23;;
9918;SDS011;4998;51.024;13.828;2023-06-26T05:42:52;5.97;;;5.47;;
9918;SDS011;4998;51.024;13.828;2023-06-26T05:45:19;5.60;;;5.10;;
9918;SDS011;4998;51.024;13.828;2023-06-26T05:47:46;5.07;;;4.50;;
9918;SDS011;4998;51.024;13.828;2023-06-26T05:50:16;4.90;;;4.50;;
9918;SDS011;4998;51.024;13.828;2023-06-26T05:52:44;4.20;;;3.90;;
9918;SDS011;4998;51.024;13.828;2023-06-26T05:55:13;4.30;;;3.93;;
9918;SDS011;4998;51.024;13.828;2023-06-26T05:57:40;4.90;;;4.50;;
9918;SDS011;4998;51.024;13.828;2023-06-26T06:00:10;4.20;;;3.90;;
9918;SDS011;4998;51.024;13.828;2023-06-26T06:02:38;4.80;;;4.20;;
9918;SDS011;4998;51.024;13.828;2023-06-26T06:05:05;5.80;;;4.20;;
9918;SDS011;4998;51.024;13.828;2023-06-26T06:07:32;5.10;;;4.60;;
9918;SDS011;4998;51.024;13.828;2023-06-26T06:10:00;4.57;;;4.17;;
9918;SDS011;4998;51.024;13.828;2023-06-26T06:12:28;4.60;;;4.20;;
9918;SDS011;4998;51.024;13.828;2023-06-26T06:14:55;4.17;;;3.87;;
9918;SDS011;4998;51.024;13.828;2023-06-26T06:17:23;4.00;;;3.70;;
9918;SDS011;4998;51.024;13.828;2023-06-26T06:19:50;4.00;;;3.70;;
9918;SDS011;4998;51.024;13.828;2023-06-26T06:22:17;3.80;;;3.50;;
9918;SDS011;4998;51.024;13.828;2023-06-26T06:24:44;4.20;;;3.80;;
9918;SDS011;4998;51.024;13.828;2023-06-26T06:27:11;4.33;;;3.93;;
9918;SDS011;4998;51.024;13.828;2023-06-26T06:29:38;3.80;;;3.50;;
9918;SDS011;4998;51.024;13.828;2023-06-26T06:32:06;3.83;;;3.53;;
9918;SDS011;4998;51.024;13.828;2023-06-26T06:34:34;3.77;;;3.47;;
9918;SDS011;4998;51.024;13.828;2023-06-26T06:37:02;4.20;;;3.80;;
9918;SDS011;4998;51.024;13.828;2023-06-26T06:39:29;4.20;;;3.80;;
9918;SDS011;4998;51.024;13.828;2023-06-26T06:41:56;4.53;;;3.60;;
9918;SDS011;4998;51.024;13.828;2023-06-26T06:44:23;3.73;;;3.43;;
9918;SDS011;4998;51.024;13.828;2023-06-26T06:46:50;3.93;;;3.50;;
9918;SDS011;4998;51.024;13.828;2023-06-26T06:49:18;3.77;;;3.47;;
9918;SDS011;4998;51.024;13.828;2023-06-26T06:51:46;3.53;;;3.30;;
9918;SDS011;4998;51.024;13.828;2023-06-26T06:54:15;3.87;;;3.57;;
9918;SDS011;4998;51.024;13.828;2023-06-26T06:56:42;3.50;;;3.20;;
9918;SDS011;4998;51.024;13.828;2023-06-26T06:59:09;4.10;;;3.70;;
9918;SDS011;4998;51.024;13.828;2023-06-26T07:01:36;3.93;;;3.63;;
9918;SDS011;4998;51.024;13.828;2023-06-26T07:04:05;3.93;;;3.53;;
9918;SDS011;4998;51.024;13.828;2023-06-26T07:06:32;3.80;;;3.50;;
9918;SDS011;4998;51.024;13.828;2023-06-26T07:09:01;4.37;;;3.97;;
9918;SDS011;4998;51.024;13.828;2023-06-26T07:11:28;4.00;;;3.60;;
9918;SDS011;4998;51.024;13.828;2023-06-26T07:13:55;4.20;;;3.80;;
9918;SDS011;4998;51.024;13.828;2023-06-26T07:16:22;3.73;;;3.43;;
9918;SDS011;4998;51.024;13.828;2023-06-26T07:18:49;3.63;;;3.43;;
9918;SDS011;4998;51.024;13.828;2023-06-26T07:21:17;5.10;;;3.93;;
9918;SDS011;4998;51.024;13.828;2023-06-26T07:23:44;3.60;;;3.30;;
9918;SDS011;4998;51.024;13.828;2023-06-26T07:26:13;5.27;;;3.73;;
9918;SDS011;4998;51.024;13.828;2023-06-26T07:28:41;4.20;;;3.90;;
9918;SDS011;4998;51.024;13.828;2023-06-26T07:31:08;4.17;;;3.80;;
9918;SDS011;4998;51.024;13.828;2023-06-26T07:33:35;3.87;;;3.57;;
9918;SDS011;4998;51.024;13.828;2023-06-26T07:36:02;4.10;;;3.80;;
9918;SDS011;4998;51.024;13.828;2023-06-26T07:38:29;3.63;;;3.33;;
9918;SDS011;4998;51.024;13.828;2023-06-26T07:40:57;3.93;;;3.63;;
9918;SDS011;4998;51.024;13.828;2023-06-26T07:43:26;4.30;;;3.70;;
9918;SDS011;4998;51.024;13.828;2023-06-26T07:45:53;6.30;;;4.00;;
9918;SDS011;4998;51.024;13.828;2023-06-26T07:48:23;4.37;;;4.07;;
9918;SDS011;4998;51.024;13.828;2023-06-26T07:50:50;4.00;;;3.60;;
9918;SDS011;4998;51.024;13.828;2023-06-26T07:53:18;3.83;;;3.53;;
9918;SDS011;4998;51.024;13.828;2023-06-26T07:55:45;3.97;;;3.67;;
9918;SDS011;4998;51.024;13.828;2023-06-26T07:58:12;3.67;;;3.37;;
9918;SDS011;4998;51.024;13.828;2023-06-26T08:00:41;3.80;;;3.47;;
9918;SDS011;4998;51.024;13.828;2023-06-26T08:03:08;3.57;;;3.37;;
9918;SDS011;4998;51.024;13.828;2023-06-26T08:05:35;4.10;;;3.70;;
9918;SDS011;4998;51.024;13.828;2023-06-26T08:08:02;4.83;;;3.43;;
9918;SDS011;4998;51.024;13.828;2023-06-26T08:10:29;3.50;;;3.30;;
9918;SDS011;4998;51.024;13.828;2023-06-26T08:12:56;4.53;;;3.90;;
9918;SDS011;4998;51.024;13.828;2023-06-26T08:15:23;36.97;;;3.77;;
9918;SDS011;4998;51.024;13.828;2023-06-26T08:17:52;3.10;;;2.90;;
9918;SDS011;4998;51.024;13.828;2023-06-26T08:20:19;3.43;;;3.23;;
9918;SDS011;4998;51.024;13.828;2023-06-26T08:22:46;3.87;;;3.57;;
9918;SDS011;4998;51.024;13.828;2023-06-26T08:25:14;3.87;;;3.57;;
9918;SDS011;4998;51.024;13.828;2023-06-26T08:27:41;3.83;;;3.53;;
9918;SDS011;4998;51.024;13.828;2023-06-26T08:30:08;3.80;;;3.50;;
9918;SDS011;4998;51.024;13.828;2023-06-26T08:32:36;3.60;;;3.30;;
9918;SDS011;4998;51.024;13.828;2023-06-26T08:35:05;3.50;;;3.20;;
9918;SDS011;4998;51.024;13.828;2023-06-26T08:37:35;6.27;;;4.23;;
9918;SDS011;4998;51.024;13.828;2023-06-26T08:40:02;3.80;;;3.60;;
9918;SDS011;4998;51.024;13.828;2023-06-26T08:42:30;3.93;;;3.63;;
9918;SDS011;4998;51.024;13.828;2023-06-26T08:44:57;3.33;;;3.13;;
9918;SDS011;4998;51.024;13.828;2023-06-26T08:47:24;4.17;;;3.87;;
9918;SDS011;4998;51.024;13.828;2023-06-26T08:49:53;3.63;;;3.43;;
9918;SDS011;4998;51.024;13.828;2023-06-26T08:52:28;4.47;;;4.07;;
9918;SDS011;4998;51.024;13.828;2023-06-26T08:54:58;4.10;;;3.80;;
9918;SDS011;4998;51.024;13.828;2023-06-26T08:57:26;3.87;;;3.53;;
9918;SDS011;4998;51.024;13.828;2023-06-26T08:59:53;3.70;;;3.40;;
9918;SDS011;4998;51.024;13.828;2023-06-26T09:02:21;4.07;;;3.77;;
9918;SDS011;4998;51.024;13.828;2023-06-26T09:04:48;4.40;;;4.00;;
9918;SDS011;4998;51.024;13.828;2023-06-26T09:07:16;5.00;;;4.50;;
9918;SDS011;4998;51.024;13.828;2023-06-26T09:09:44;4.20;;;3.80;;
9918;SDS011;4998;51.024;13.828;2023-06-26T09:12:11;3.77;;;3.53;;
9918;SDS011;4998;51.024;13.828;2023-06-26T09:14:40;4.13;;;3.83;;
9918;SDS011;4998;51.024;13.828;2023-06-26T09:17:07;4.63;;;3.97;;
9918;SDS011;4998;51.024;13.828;2023-06-26T09:19:36;4.13;;;3.83;;
9918;SDS011;4998;51.024;13.828;2023-06-26T09:22:04;3.70;;;3.40;;
9918;SDS011;4998;51.024;13.828;2023-06-26T09:24:37;4.27;;;3.87;;
9918;SDS011;4998;51.024;13.828;2023-06-26T09:27:05;3.70;;;3.40;;
9918;SDS011;4998;51.024;13.828;2023-06-26T09:29:32;3.80;;;3.50;;
9918;SDS011;4998;51.024;13.828;2023-06-26T09:31:59;4.10;;;3.80;;
9918;SDS011;4998;51.024;13.828;2023-06-26T09:34:30;4.20;;;3.90;;
9918;SDS011;4998;51.024;13.828;2023-06-26T09:36:58;3.57;;;3.27;;
9918;SDS011;4998;51.024;13.828;2023-06-26T09:39:29;3.90;;;3.60;;
9918;SDS011;4998;51.024;13.828;2023-06-26T09:41:57;4.07;;;3.77;;
9918;SDS011;4998;51.024;13.828;2023-06-26T09:44:25;6.47;;;3.67;;
9918;SDS011;4998;51.024;13.828;2023-06-26T09:46:54;3.80;;;3.50;;
9918;SDS011;4998;51.024;13.828;2023-06-26T09:49:23;4.43;;;4.03;;
9918;SDS011;4998;51.024;13.828;2023-06-26T09:51:51;4.30;;;4.00;;
9918;SDS011;4998;51.024;13.828;2023-06-26T09:54:21;4.00;;;3.70;;
9918;SDS011;4998;51.024;13.828;2023-06-26T09:56:48;4.70;;;4.20;;
9918;SDS011;4998;51.024;13.828;2023-06-26T09:59:15;4.23;;;3.93;;
9918;SDS011;4998;51.024;13.828;2023-06-26T10:01:45;3.90;;;3.60;;
9918;SDS011;4998;51.024;13.828;2023-06-26T10:04:12;4.50;;;4.10;;
9918;SDS011;4998;51.024;13.828;2023-06-26T10:06:41;3.63;;;3.33;;
9918;SDS011;4998;51.024;13.828;2023-06-26T10:09:13;4.37;;;4.07;;
9918;SDS011;4998;51.024;13.828;2023-06-26T10:11:44;3.87;;;3.60;;
9918;SDS011;4998;51.024;13.828;2023-06-26T10:14:17;4.30;;;4.00;;
9918;SDS011;4998;51.024;13.828;2023-06-26T10:16:48;4.50;;;4.20;;
9918;SDS011;4998;51.024;13.828;2023-06-26T10:19:16;4.20;;;3.80;;
9918;SDS011;4998;51.024;13.828;2023-06-26T10:21:49;4.20;;;3.70;;
9918;SDS011;4998;51.024;13.828;2023-06-26T10:24:17;4.00;;;3.70;;
9918;SDS011;4998;51.024;13.828;2023-06-26T10:26:46;5.60;;;3.70;;
9918;SDS011;4998;51.024;13.828;2023-06-26T10:29:16;4.50;;;3.80;;
9918;SDS011;4998;51.024;13.828;2023-06-26T10:31:48;5.03;;;3.80;;
9918;SDS011;4998;51.024;13.828;2023-06-26T10:34:21;4.27;;;3.87;;
9918;SDS011;4998;51.024;13.828;2023-06-26T10:36:48;3.83;;;3.53;;
9918;SDS011;4998;51.024;13.828;2023-06-26T10:39:25;4.10;;;3.80;;
9918;SDS011;4998;51.024;13.828;2023-06-26T10:41:54;3.80;;;3.50;;
9918;SDS011;4998;51.024;13.828;2023-06-26T10:44:21;3.80;;;3.50;;
9918;SDS011;4998;51.024;13.828;2023-06-26T10:46:49;3.80;;;3.50;;
9918;SDS011;4998;51.024;13.828;2023-06-26T10:49:18;13.73;;;3.90;;
9918;SDS011;4998;51.024;13.828;2023-06-26T10:51:46;4.00;;;3.70;;
9918;SDS011;4998;51.024;13.828;2023-06-26T10:54:14;3.87;;;3.57;;
9918;SDS011;4998;51.024;13.828;2023-06-26T10:56:43;4.00;;;3.70;;
9918;SDS011;4998;51.024;13.828;2023-06-26T10:59:15;4.63;;;3.77;;
9918;SDS011;4998;51.024;13.828;2023-06-26T11:01:44;3.97;;;3.67;;
9918;SDS011;4998;51.024;13.828;2023-06-26T11:04:14;3.60;;;3.40;;
9918;SDS011;4998;51.024;13.828;2023-06-26T11:06:43;3.73;;;3.43;;
9918;SDS011;4998;51.024;13.828;2023-06-26T11:09:14;3.80;;;3.50;;
9918;SDS011;4998;51.024;13.828;2023-06-26T11:11:59;4.07;;;3.73;;
9918;SDS011;4998;51.024;13.828;2023-06-26T11:14:32;10.87;;;3.83;;
9918;SDS011;4998;51.024;13.828;2023-06-26T11:17:02;3.93;;;3.63;;
9918;SDS011;4998;51.024;13.828;2023-06-26T11:19:31;3.60;;;3.30;;
9918;SDS011;4998;51.024;13.828;2023-06-26T11:21:59;3.90;;;3.60;;
9918;SDS011;4998;51.024;13.828;2023-06-26T11:24:29;3.50;;;3.20;;
9918;SDS011;4998;51.024;13.828;2023-06-26T11:26:59;4.00;;;3.70;;
9918;SDS011;4998;51.024;13.828;2023-06-26T11:29:28;3.70;;;3.43;;
9918;SDS011;4998;51.024;13.828;2023-06-26T11:32:00;4.00;;;3.70;;
9918;SDS011;4998;51.024;13.828;2023-06-26T11:34:32;3.83;;;3.53;;
9918;SDS011;4998;51.024;13.828;2023-06-26T11:37:00;7.10;;;3.57;;
9918;SDS011;4998;51.024;13.828;2023-06-26T11:39:29;4.00;;;3.70;;
9918;SDS011;4998;51.024;13.828;2023-06-26T11:41:58;3.80;;;3.53;;
9918;SDS011;4998;51.024;13.828;2023-06-26T11:44:29;3.83;;;3.47;;
9918;SDS011;4998;51.024;13.828;2023-06-26T11:46:56;3.87;;;3.23;;
9918;SDS011;4998;51.024;13.828;2023-06-26T11:49:24;3.33;;;3.13;;
9918;SDS011;4998;51.024;13.828;2023-06-26T11:51:53;3.83;;;3.43;;
9918;SDS011;4998;51.024;13.828;2023-06-26T11:54:23;4.13;;;3.83;;
9918;SDS011;4998;51.024;13.828;2023-06-26T11:56:51;3.97;;;3.67;;
9918;SDS011;4998;51.024;13.828;2023-06-26T11:59:21;3.60;;;3.30;;
9918;SDS011;4998;51.024;13.828;2023-06-26T12:01:49;3.90;;;3.60;;
9918;SDS011;4998;51.024;13.828;2023-06-26T12:04:17;3.60;;;3.30;;
9918;SDS011;4998;51.024;13.828;2023-06-26T12:06:46;3.77;;;3.43;;
9918;SDS011;4998;51.024;13.828;2023-06-26T12:09:16;3.80;;;3.50;;
9918;SDS011;4998;51.024;13.828;2023-06-26T12:11:45;3.93;;;3.60;;
9918;SDS011;4998;51.024;13.828;2023-06-26T12:14:14;3.77;;;3.47;;
9918;SDS011;4998;51.024;13.828;2023-06-26T12:16:43;4.03;;;3.63;;
9918;SDS011;4998;51.024;13.828;2023-06-26T12:19:10;4.33;;;3.60;;
9918;SDS011;4998;51.024;13.828;2023-06-26T12:21:44;4.20;;;3.80;;
9918;SDS011;4998;51.024;13.828;2023-06-26T12:24:14;3.50;;;3.30;;
9918;SDS011;4998;51.024;13.828;2023-06-26T12:26:43;4.07;;;3.77;;
9918;SDS011;4998;51.024;13.828;2023-06-26T12:29:12;3.30;;;3.10;;
9918;SDS011;4998;51.024;13.828;2023-06-26T12:31:40;3.70;;;3.40;;
9918;SDS011;4998;51.024;13.828;2023-06-26T12:34:11;3.67;;;3.37;;
9918;SDS011;4998;51.024;13.828;2023-06-26T12:36:42;3.53;;;3.23;;
9918;SDS011;4998;51.024;13.828;2023-06-26T12:39:10;3.80;;;3.07;;
9918;SDS011;4998;51.024;13.828;2023-06-26T12:41:46;3.83;;;3.53;;
9918;SDS011;4998;51.024;13.828;2023-06-26T12:44:20;3.77;;;3.30;;
9918;SDS011;4998;51.024;13.828;2023-06-26T12:46:48;3.73;;;3.43;;
9918;SDS011;4998;51.024;13.828;2023-06-26T12:49:16;3.90;;;3.60;;
9918;SDS011;4998;51.024;13.828;2023-06-26T12:51:44;3.90;;;3.60;;
9918;SDS011;4998;51.024;13.828;2023-06-26T12:54:12;4.23;;;3.90;;
9918;SDS011;4998;51.024;13.828;2023-06-26T12:56:39;3.50;;;3.27;;
9918;SDS011;4998;51.024;13.828;2023-06-26T12:59:07;4.23;;;3.57;;
9918;SDS011;4998;51.024;13.828;2023-06-26T13:01:34;4.10;;;3.77;;
9918;SDS011;4998;51.024;13.828;2023-06-26T13:04:02;4.37;;;3.40;;
9918;SDS011;4998;51.024;13.828;2023-06-26T13:06:29;3.77;;;3.47;;
9918;SDS011;4998;51.024;13.828;2023-06-26T13:08:57;6.63;;;3.40;;
9918;SDS011;4998;51.024;13.828;2023-06-26T13:11:24;3.90;;;3.60;;
9918;SDS011;4998;51.024;13.828;2023-06-26T13:13:51;3.87;;;3.57;;
9918;SDS011;4998;51.024;13.828;2023-06-26T13:16:19;3.97;;;3.63;;
9918;SDS011;4998;51.024;13.828;2023-06-26T13:18:46;4.00;;;3.70;;
9918;SDS011;4998;51.024;13.828;2023-06-26T13:21:14;3.70;;;3.40;;
9918;SDS011;4998;51.024;13.828;2023-06-26T13:23:43;3.70;;;3.40;;
9918;SDS011;4998;51.024;13.828;2023-06-26T13:26:10;3.77;;;3.47;;
9918;SDS011;4998;51.024;13.828;2023-06-26T13:28:38;4.03;;;3.73;;
9918;SDS011;4998;51.024;13.828;2023-06-26T13:31:04;3.30;;;3.10;;
9918;SDS011;4998;51.024;13.828;2023-06-26T13:33:33;4.20;;;3.90;;
9918;SDS011;4998;51.024;13.828;2023-06-26T13:36:00;4.20;;;3.90;;
9918;SDS011;4998;51.024;13.828;2023-06-26T13:38:29;4.30;;;3.90;;
9918;SDS011;4998;51.024;13.828;2023-06-26T13:40:59;3.80;;;3.50;;
9918;SDS011;4998;51.024;13.828;2023-06-26T13:43:27;3.60;;;3.40;;
9918;SDS011;4998;51.024;13.828;2023-06-26T13:45:55;6.63;;;3.80;;
9918;SDS011;4998;51.024;13.828;2023-06-26T13:48:22;4.00;;;3.70;;
9918;SDS011;4998;51.024;13.828;2023-06-26T13:50:52;3.53;;;3.23;;
9918;SDS011;4998;51.024;13.828;2023-06-26T13:53:19;4.10;;;3.80;;
9918;SDS011;4998;51.024;13.828;2023-06-26T13:55:46;4.13;;;3.80;;
9918;SDS011;4998;51.024;13.828;2023-06-26T13:58:13;4.10;;;3.80;;
9918;SDS011;4998;51.024;13.828;2023-06-26T14:00:40;5.43;;;4.10;;
9918;SDS011;4998;51.024;13.828;2023-06-26T14:03:09;3.90;;;3.60;;
9918;SDS011;4998;51.024;13.828;2023-06-26T14:05:37;6.40;;;3.53;;
9918;SDS011;4998;51.024;13.828;2023-06-26T14:08:07;3.83;;;3.53;;
9918;SDS011;4998;51.024;13.828;2023-06-26T14:10:35;3.73;;;3.43;;
9918;SDS011;4998;51.024;13.828;2023-06-26T14:13:03;3.43;;;3.23;;
9918;SDS011;4998;51.024;13.828;2023-06-26T14:15:30;4.17;;;3.87;;
9918;SDS011;4998;51.024;13.828;2023-06-26T14:17:57;3.93;;;3.63;;
9918;SDS011;4998;51.024;13.828;2023-06-26T14:20:24;8.20;;;3.53;;
9918;SDS011;4998;51.024;13.828;2023-06-26T14:22:52;4.03;;;3.63;;
9918;SDS011;4998;51.024;13.828;2023-06-26T14:25:21;3.77;;;3.47;;
9918;SDS011;4998;51.024;13.828;2023-06-26T14:27:48;3.37;;;3.17;;
9918;SDS011;4998;51.024;13.828;2023-06-26T14:30:14;4.07;;;3.73;;
9918;SDS011;4998;51.024;13.828;2023-06-26T14:32:41;3.77;;;3.33;;
9918;SDS011;4998;51.024;13.828;2023-06-26T14:35:08;3.80;;;3.50;;
9918;SDS011;4998;51.024;13.828;2023-06-26T14:37:35;3.67;;;3.37;;
9918;SDS011;4998;51.024;13.828;2023-06-26T14:40:05;4.00;;;3.70;;
9918;SDS011;4998;51.024;13.828;2023-06-26T14:42:34;4.20;;;3.80;;
9918;SDS011;4998;51.024;13.828;2023-06-26T14:45:01;4.00;;;3.70;;
9918;SDS011;4998;51.024;13.828;2023-06-26T14:47:29;3.63;;;3.33;;
9918;SDS011;4998;51.024;13.828;2023-06-26T14:49:56;3.40;;;3.20;;
9918;SDS011;4998;51.024;13.828;2023-06-26T14:52:23;3.60;;;3.40;;
9918;SDS011;4998;51.024;13.828;2023-06-26T14:54:50;3.83;;;3.53;;
9918;SDS011;4998;51.024;13.828;2023-06-26T14:57:17;5.30;;;4.43;;
9918;SDS011;4998;51.024;13.828;2023-06-26T14:59:45;4.50;;;4.10;;
9918;SDS011;4998;51.024;13.828;2023-06-26T15:02:12;4.47;;;4.07;;
9918;SDS011;4998;51.024;13.828;2023-06-26T15:04:39;4.20;;;3.90;;
9918;SDS011;4998;51.024;13.828;2023-06-26T15:07:06;4.43;;;4.03;;